createdAt,value
2019-01-09T00:07:02.683Z,16.83
2019-01-09T00:27:02.292Z,13.58
2019-01-09T00:47:11.759Z,17.76
2019-01-09T01:07:21.358Z,16.73
2019-01-09T01:27:30.882Z,15.00
2019-01-09T01:47:40.434Z,17.04
2019-01-09T02:07:49.977Z,21.69
2019-01-09T02:27:59.539Z,28.07
2019-01-09T02:48:09.116Z,23.79
2019-01-09T03:08:18.647Z,20.56
2019-01-09T03:28:28.241Z,23.91
2019-01-09T03:48:37.732Z,16.98
2019-01-09T04:08:49.508Z,27.32
2019-01-09T04:28:49.070Z,21.81
2019-01-09T04:49:00.913Z,22.96
2019-01-09T05:09:00.420Z,18.97
2019-01-09T05:29:09.949Z,23.64
2019-01-09T05:49:19.584Z,20.43
2019-01-09T06:09:29.042Z,19.18
2019-01-09T06:29:40.819Z,20.46
2019-01-09T06:49:42.763Z,12.80
2019-01-09T07:09:42.281Z,21.64
2019-01-09T07:29:51.800Z,20.91
2019-01-09T07:50:03.542Z,19.27
2019-01-09T08:10:03.122Z,16.36
2019-01-09T08:30:12.721Z,14.19
2019-01-09T08:50:22.252Z,15.64
2019-01-09T09:10:32.791Z,13.82
2019-01-09T09:30:32.277Z,10.85
2019-01-09T09:50:41.580Z,19.08
2019-01-09T10:10:53.417Z,12.17
2019-01-09T10:30:52.764Z,12.31
2019-01-09T10:51:02.257Z,12.11
2019-01-09T11:11:11.816Z,15.84
2019-01-09T11:31:23.611Z,19.84
2019-01-09T11:51:25.501Z,23.60
2019-01-09T12:11:25.073Z,18.32
2019-01-09T12:31:34.686Z,24.11
2019-01-09T12:51:44.288Z,24.47
2019-01-09T13:11:54.885Z,22.84
2019-01-09T13:31:56.869Z,27.21
2019-01-09T13:51:58.803Z,19.93
2019-01-09T14:12:00.623Z,28.44
2019-01-09T14:32:02.587Z,29.77
2019-01-09T14:52:09.685Z,37.45
2019-01-09T15:12:09.410Z,34.48
2019-01-09T15:32:19.692Z,33.65
2019-01-09T15:52:24.380Z,33.53
2019-01-09T16:12:26.598Z,38.43
2019-01-09T16:32:26.280Z,39.83
2019-01-09T16:52:36.002Z,41.12
2019-01-09T17:12:53.139Z,41.47
2019-01-09T17:33:04.169Z,47.45
2019-01-09T17:52:58.255Z,53.87
2019-01-09T18:13:03.027Z,49.09
2019-01-09T18:33:07.721Z,45.88
2019-01-09T18:53:09.072Z,43.66
2019-01-09T19:13:21.125Z,44.40
2019-01-09T19:33:28.017Z,40.28
2019-01-09T19:53:27.490Z,35.43
2019-01-09T20:13:38.393Z,37.57
2019-01-09T20:33:43.365Z,38.82
2019-01-09T20:53:40.828Z,41.62
2019-01-09T21:13:50.369Z,41.40
2019-01-09T21:33:59.805Z,45.15
2019-01-09T22:14:15.868Z,48.48
2019-01-09T22:34:25.379Z,51.33
2019-01-09T22:54:36.573Z,53.62
2019-01-09T23:14:44.645Z,53.00
2019-01-09T23:34:44.170Z,58.56
2019-01-09T23:54:53.738Z,50.44
